createdAt,value
2018-10-12T00:00:43.463Z,3.37
2018-10-12T00:03:13.042Z,3.97
2018-10-12T00:05:42.574Z,4.10
2018-10-12T00:08:11.480Z,3.77
2018-10-12T00:10:40.361Z,4.13
2018-10-12T00:13:09.222Z,4.37
2018-10-12T00:15:38.106Z,4.13
2018-10-12T00:18:07.051Z,3.70
2018-10-12T00:20:35.987Z,4.07
2018-10-12T00:23:04.898Z,4.23
2018-10-12T00:25:33.784Z,3.53
2018-10-12T00:28:02.674Z,3.73
2018-10-12T00:30:31.609Z,4.27
2018-10-12T00:33:00.501Z,4.50
2018-10-12T00:35:29.379Z,4.70
2018-10-12T00:37:58.272Z,4.50
2018-10-12T00:40:27.155Z,4.03
2018-10-12T00:42:56.093Z,3.57
2018-10-12T00:45:26.007Z,4.20
2018-10-12T00:48:01.859Z,3.83
2018-10-12T00:50:32.139Z,4.27
2018-10-12T00:53:01.311Z,4.43
2018-10-12T00:55:32.560Z,3.70
2018-10-12T00:58:01.426Z,4.47
2018-10-12T01:00:30.307Z,4.40
2018-10-12T01:02:59.176Z,4.80
2018-10-12T01:05:28.139Z,4.17
2018-10-12T01:07:57.022Z,4.47
2018-10-12T01:10:25.915Z,4.87
2018-10-12T01:12:55.127Z,4.03
2018-10-12T01:15:24.075Z,4.20
2018-10-12T01:17:52.958Z,4.80
2018-10-12T01:20:21.827Z,4.37
2018-10-12T01:22:50.801Z,4.17
2018-10-12T01:25:20.342Z,4.07
2018-10-12T01:27:49.223Z,4.20
2018-10-12T01:30:18.114Z,4.00
2018-10-12T01:32:52.355Z,3.83
2018-10-12T01:35:21.216Z,3.60
2018-10-12T01:37:50.121Z,3.40
2018-10-12T01:40:19.018Z,3.60
2018-10-12T01:42:47.903Z,3.80
2018-10-12T01:45:16.790Z,3.23
2018-10-12T01:47:45.688Z,3.20
2018-10-12T01:50:14.590Z,3.20
2018-10-12T01:52:43.467Z,3.73
2018-10-12T01:55:12.518Z,3.17
2018-10-12T01:57:41.393Z,3.13
2018-10-12T02:00:10.307Z,3.37
2018-10-12T02:02:39.390Z,3.43
2018-10-12T02:05:08.587Z,3.50
2018-10-12T02:07:37.555Z,3.63
2018-10-12T02:10:06.602Z,3.00
2018-10-12T02:12:35.359Z,2.90
2018-10-12T02:15:04.735Z,3.23
2018-10-12T02:17:33.635Z,2.90
2018-10-12T02:20:02.507Z,3.00
2018-10-12T02:22:31.546Z,3.53
2018-10-12T02:25:00.519Z,3.33
2018-10-12T02:27:29.391Z,3.20
2018-10-12T02:29:58.628Z,3.17
2018-10-12T02:32:27.514Z,3.10
2018-10-12T02:34:56.569Z,3.73
2018-10-12T02:37:25.460Z,3.40
2018-10-12T02:39:54.353Z,2.97
2018-10-12T02:42:23.208Z,3.37
2018-10-12T02:44:52.104Z,3.30
2018-10-12T02:47:21.122Z,3.57
2018-10-12T02:49:50.003Z,3.37
2018-10-12T02:52:18.903Z,3.70
2018-10-12T02:54:47.870Z,3.60
2018-10-12T02:57:16.750Z,4.00
2018-10-12T02:59:45.652Z,3.87
2018-10-12T03:02:14.528Z,3.40
2018-10-12T03:04:43.475Z,3.70
2018-10-12T03:07:12.386Z,4.00
2018-10-12T03:09:41.333Z,3.83
2018-10-12T03:12:10.252Z,4.17
2018-10-12T03:14:39.142Z,3.77
2018-10-12T03:17:08.061Z,3.33
2018-10-12T03:19:37.284Z,3.63
2018-10-12T03:22:06.172Z,2.90
2018-10-12T03:24:35.062Z,3.23
2018-10-12T03:27:03.955Z,3.27
2018-10-12T03:29:32.926Z,3.07
2018-10-12T03:32:02.236Z,2.70
2018-10-12T03:34:31.394Z,3.10
2018-10-12T03:37:00.307Z,2.67
2018-10-12T03:39:29.292Z,3.07
2018-10-12T03:41:58.274Z,2.70
2018-10-12T03:44:27.133Z,2.50
2018-10-12T03:46:56.066Z,2.30
2018-10-12T03:49:24.956Z,2.90
2018-10-12T03:51:53.931Z,2.70
2018-10-12T03:54:22.738Z,2.70
2018-10-12T03:56:51.629Z,2.70
2018-10-12T03:59:20.526Z,2.40
2018-10-12T04:01:49.367Z,2.43
2018-10-12T04:04:18.324Z,2.40
2018-10-12T04:06:47.220Z,2.27
2018-10-12T04:09:16.079Z,2.53
2018-10-12T04:11:44.976Z,2.37
2018-10-12T04:14:13.884Z,2.93
2018-10-12T04:16:42.789Z,2.00
2018-10-12T04:19:11.776Z,2.07
2018-10-12T04:21:40.634Z,2.30
2018-10-12T04:24:09.519Z,2.80
2018-10-12T04:26:38.440Z,2.73
2018-10-12T04:29:07.335Z,2.90
2018-10-12T04:31:36.214Z,2.80
2018-10-12T04:34:05.164Z,2.60
2018-10-12T04:36:34.065Z,2.57
2018-10-12T04:39:14.423Z,2.23
2018-10-12T04:41:43.418Z,2.93
2018-10-12T04:44:12.476Z,2.53
2018-10-12T04:46:43.271Z,2.13
2018-10-12T04:49:13.235Z,2.80
2018-10-12T04:51:46.478Z,2.50
2018-10-12T04:54:15.448Z,1.87
2018-10-12T04:56:44.697Z,2.30
2018-10-12T04:59:13.695Z,2.63
2018-10-12T05:01:42.691Z,2.37
2018-10-12T05:04:11.621Z,2.60
2018-10-12T05:06:40.549Z,2.40
2018-10-12T05:09:10.724Z,2.23
2018-10-12T05:11:40.013Z,2.90
2018-10-12T05:14:09.399Z,3.30
2018-10-12T05:16:38.341Z,3.33
2018-10-12T05:19:07.938Z,3.40
2018-10-12T05:21:36.848Z,3.13
2018-10-12T05:24:05.760Z,3.57
2018-10-12T05:26:34.719Z,3.53
2018-10-12T05:29:03.723Z,3.03
2018-10-12T05:31:32.532Z,4.00
2018-10-12T05:34:01.495Z,3.83
2018-10-12T05:36:30.411Z,3.57
2018-10-12T05:38:59.296Z,3.60
2018-10-12T05:41:28.212Z,4.57
2018-10-12T05:43:57.121Z,3.97
2018-10-12T05:46:26.011Z,3.60
2018-10-12T05:49:06.233Z,4.57
2018-10-12T05:51:35.294Z,4.03
2018-10-12T05:54:04.259Z,4.20
2018-10-12T05:56:34.954Z,4.33
2018-10-12T05:59:04.388Z,4.10
2018-10-12T06:01:33.326Z,3.97
2018-10-12T06:04:02.236Z,3.73
2018-10-12T06:06:31.131Z,4.27
2018-10-12T06:09:01.648Z,4.23
2018-10-12T06:11:30.709Z,3.80
2018-10-12T06:13:59.568Z,4.60
2018-10-12T06:16:28.462Z,4.83
2018-10-12T06:18:57.487Z,4.20
2018-10-12T06:21:26.457Z,4.57
2018-10-12T06:23:55.285Z,5.50
2018-10-12T06:26:31.090Z,5.27
2018-10-12T06:29:00.137Z,5.27
2018-10-12T06:31:29.033Z,5.50
2018-10-12T06:33:58.055Z,4.80
2018-10-12T06:36:26.930Z,5.17
2018-10-12T06:38:55.797Z,4.90
2018-10-12T06:41:24.721Z,4.83
2018-10-12T06:43:53.575Z,5.40
2018-10-12T06:46:22.535Z,5.80
2018-10-12T06:48:53.458Z,5.57
2018-10-12T06:51:22.341Z,6.00
2018-10-12T06:53:51.243Z,5.80
2018-10-12T06:56:20.269Z,5.83
2018-10-12T06:58:49.162Z,6.27
2018-10-12T07:01:18.140Z,5.87
2018-10-12T07:03:47.295Z,5.63
2018-10-12T07:06:16.333Z,5.53
2018-10-12T07:08:45.223Z,5.30
2018-10-12T07:11:14.097Z,4.83
2018-10-12T07:13:43.111Z,6.03
2018-10-12T07:16:11.991Z,5.47
2018-10-12T07:18:41.965Z,6.00
2018-10-12T07:21:11.035Z,5.30
2018-10-12T07:23:39.890Z,5.50
2018-10-12T07:26:08.835Z,5.70
2018-10-12T07:28:38.775Z,6.37
2018-10-12T07:31:08.424Z,5.40
2018-10-12T07:33:37.370Z,5.70
2018-10-12T07:36:06.382Z,5.03
2018-10-12T07:38:35.489Z,6.13
2018-10-12T07:41:04.388Z,5.73
2018-10-12T07:43:33.295Z,5.53
2018-10-12T07:46:02.171Z,5.47
2018-10-12T07:48:31.072Z,5.50
2018-10-12T07:50:59.911Z,6.20
2018-10-12T07:53:28.892Z,5.77
2018-10-12T07:55:57.779Z,5.60
2018-10-12T07:58:27.484Z,5.60
2018-10-12T08:00:56.442Z,5.40
2018-10-12T08:03:25.304Z,6.00
2018-10-12T08:05:54.171Z,6.17
2018-10-12T08:08:23.051Z,5.80
2018-10-12T08:10:51.943Z,6.53
2018-10-12T08:13:20.916Z,6.00
2018-10-12T08:15:52.623Z,6.37
2018-10-12T08:18:21.543Z,6.47
2018-10-12T08:20:50.483Z,6.10
2018-10-12T08:23:19.542Z,5.63
2018-10-12T08:25:48.830Z,6.23
2018-10-12T08:28:18.270Z,6.03
2018-10-12T08:30:47.211Z,6.30
2018-10-12T08:33:16.083Z,5.70
2018-10-12T08:35:44.978Z,6.83
2018-10-12T08:38:13.871Z,6.93
2018-10-12T08:40:42.835Z,6.10
2018-10-12T08:43:11.703Z,6.53
2018-10-12T08:45:40.576Z,5.37
2018-10-12T08:48:09.507Z,6.33
2018-10-12T08:50:38.395Z,5.43
2018-10-12T08:53:07.349Z,5.73
2018-10-12T08:55:36.260Z,5.70
2018-10-12T09:02:42.335Z,5.80
2018-10-12T09:05:11.288Z,6.47
2018-10-12T09:07:41.289Z,5.73
2018-10-12T09:10:10.327Z,5.83
2018-10-12T09:12:39.499Z,6.30
2018-10-12T09:15:08.388Z,6.93
2018-10-12T09:17:37.359Z,7.13
2018-10-12T09:20:06.936Z,6.53
2018-10-12T09:22:35.821Z,6.67
2018-10-12T09:25:04.785Z,7.10
2018-10-12T09:27:33.686Z,7.57
2018-10-12T09:30:02.671Z,7.80
2018-10-12T09:32:31.545Z,8.63
2018-10-12T09:35:00.408Z,9.03
2018-10-12T09:37:29.375Z,8.43
2018-10-12T09:39:58.241Z,9.47
2018-10-12T09:42:28.249Z,7.70
2018-10-12T09:44:57.195Z,7.90
2018-10-12T09:47:26.158Z,8.13
2018-10-12T09:49:55.039Z,8.30
2018-10-12T09:52:23.967Z,7.27
2018-10-12T09:54:52.827Z,9.33
2018-10-12T09:57:24.783Z,7.87
2018-10-12T09:59:53.942Z,8.90
2018-10-12T10:02:27.031Z,8.37
2018-10-12T10:05:00.189Z,7.47
2018-10-12T10:07:29.263Z,8.00
2018-10-12T10:09:58.173Z,7.60
2018-10-12T10:12:27.067Z,7.57
2018-10-12T10:14:55.956Z,7.07
2018-10-12T10:17:24.840Z,8.70
2018-10-12T10:19:53.708Z,8.43
2018-10-12T10:22:22.619Z,7.90
2018-10-12T10:24:51.573Z,9.10
2018-10-12T10:27:20.465Z,7.93
2018-10-12T10:29:49.384Z,7.87
2018-10-12T10:32:18.431Z,8.10
2018-10-12T10:34:47.342Z,8.40
2018-10-12T10:37:16.258Z,8.00
2018-10-12T10:39:50.583Z,7.57
2018-10-12T10:42:19.458Z,6.77
2018-10-12T10:44:48.432Z,6.20
2018-10-12T10:47:17.500Z,6.37
2018-10-12T10:49:46.419Z,5.60
2018-10-12T10:52:15.289Z,6.23
2018-10-12T10:54:44.524Z,6.33
2018-10-12T10:57:13.508Z,5.90
2018-10-12T10:59:42.399Z,6.00
2018-10-12T11:02:11.349Z,5.33
2018-10-12T11:04:40.239Z,5.80
2018-10-12T11:07:09.129Z,4.87
2018-10-12T11:09:38.019Z,5.70
2018-10-12T11:12:07.100Z,5.47
2018-10-12T11:14:35.943Z,5.70
2018-10-12T11:17:04.819Z,5.50
2018-10-12T11:19:33.711Z,5.50
2018-10-12T11:22:02.570Z,4.67
2018-10-12T11:24:31.463Z,4.23
2018-10-12T11:27:00.356Z,4.10
2018-10-12T11:29:29.287Z,3.80
2018-10-12T11:31:58.180Z,4.07
2018-10-12T11:34:27.070Z,4.17
2018-10-12T11:36:55.929Z,4.33
2018-10-12T11:39:24.833Z,3.93
2018-10-12T11:41:53.732Z,4.10
2018-10-12T11:44:22.608Z,4.00
2018-10-12T11:46:51.546Z,5.27
2018-10-12T11:49:20.617Z,4.83
2018-10-12T11:51:49.552Z,4.20
2018-10-12T11:54:18.671Z,4.17
2018-10-12T11:56:47.655Z,3.30
2018-10-12T11:59:16.556Z,4.03
2018-10-12T12:01:45.488Z,3.87
2018-10-12T12:04:14.481Z,3.87
2018-10-12T12:06:43.351Z,3.53
2018-10-12T12:09:12.236Z,3.70
2018-10-12T12:11:41.117Z,3.60
2018-10-12T12:14:10.030Z,3.43
2018-10-12T12:16:38.999Z,3.20
2018-10-12T12:19:07.909Z,3.20
2018-10-12T12:21:36.939Z,3.03
2018-10-12T12:24:05.925Z,3.03
2018-10-12T12:26:34.798Z,3.00
2018-10-12T12:29:03.701Z,2.77
2018-10-12T12:31:32.630Z,3.37
2018-10-12T12:34:06.932Z,2.87
2018-10-12T12:36:35.860Z,2.93
2018-10-12T12:39:06.427Z,2.60
2018-10-12T12:41:35.458Z,2.70
2018-10-12T12:44:04.311Z,2.70
2018-10-12T12:46:33.195Z,2.87
2018-10-12T12:49:02.637Z,2.83
2018-10-12T12:51:31.284Z,2.70
2018-10-12T12:54:00.215Z,2.87
2018-10-12T12:56:29.105Z,2.70
2018-10-12T12:58:58.149Z,2.63
2018-10-12T13:01:27.073Z,3.10
2018-10-12T13:03:55.985Z,2.80
2018-10-12T13:06:24.935Z,2.87
2018-10-12T13:08:53.811Z,2.60
2018-10-12T13:11:22.787Z,2.97
2018-10-12T13:13:51.716Z,2.47
2018-10-12T13:16:20.732Z,2.90
2018-10-12T13:18:49.600Z,3.27
2018-10-12T13:21:18.519Z,2.90
2018-10-12T13:23:47.478Z,3.00
2018-10-12T13:26:16.692Z,3.07
2018-10-12T13:28:45.857Z,2.73
2018-10-12T13:31:14.895Z,3.00
2018-10-12T13:33:43.789Z,2.70
2018-10-12T13:36:12.817Z,3.13
2018-10-12T13:38:41.714Z,2.87
2018-10-12T13:41:10.691Z,2.90
2018-10-12T13:43:39.670Z,3.37
2018-10-12T13:46:08.645Z,2.73
2018-10-12T13:48:37.639Z,2.80
2018-10-12T13:51:06.903Z,2.70
2018-10-12T13:53:35.856Z,2.50
2018-10-12T13:56:05.100Z,3.17
2018-10-12T13:58:34.131Z,2.87
2018-10-12T14:01:03.273Z,3.10
2018-10-12T14:03:32.134Z,3.20
2018-10-12T14:06:01.321Z,2.73
2018-10-12T14:08:31.121Z,3.27
2018-10-12T14:11:00.256Z,2.87
2018-10-12T14:13:29.209Z,3.00
2018-10-12T14:15:58.609Z,3.30
2018-10-12T14:18:32.988Z,2.83
2018-10-12T14:21:01.846Z,2.97
2018-10-12T14:23:30.758Z,3.03
2018-10-12T14:25:59.782Z,3.10
2018-10-12T14:28:28.684Z,3.10
2018-10-12T14:30:57.685Z,3.23
2018-10-12T14:33:26.836Z,2.67
2018-10-12T14:35:56.909Z,3.30
2018-10-12T14:38:25.884Z,2.93
2018-10-12T14:40:54.868Z,3.27
2018-10-12T14:43:23.822Z,3.00
2018-10-12T14:45:52.799Z,3.00
2018-10-12T14:48:21.763Z,3.33
2018-10-12T14:50:50.676Z,2.77
2018-10-12T14:53:19.656Z,2.60
2018-10-12T14:55:48.514Z,3.00
2018-10-12T14:58:17.587Z,2.93
2018-10-12T15:00:46.566Z,3.23
2018-10-12T15:03:15.513Z,3.53
2018-10-12T15:05:45.447Z,2.83
2018-10-12T15:08:14.468Z,3.00
2018-10-12T15:10:43.475Z,2.67
2018-10-12T15:13:12.404Z,2.80
2018-10-12T15:15:41.289Z,3.00
2018-10-12T15:18:10.281Z,3.37
2018-10-12T15:20:39.251Z,2.90
2018-10-12T15:23:08.221Z,3.07
2018-10-12T15:25:37.249Z,3.40
2018-10-12T15:28:06.208Z,3.73
2018-10-12T15:30:35.243Z,3.67
2018-10-12T15:33:04.198Z,3.33
2018-10-12T15:35:33.226Z,3.77
2018-10-12T15:38:02.225Z,3.13
2018-10-12T15:40:31.263Z,3.47
2018-10-12T15:43:00.236Z,3.30
2018-10-12T15:45:29.067Z,3.80
2018-10-12T15:47:58.035Z,3.23
2018-10-12T15:50:27.033Z,3.93
2018-10-12T15:52:56.017Z,3.77
2018-10-12T15:55:25.005Z,3.80
2018-10-12T15:57:53.880Z,3.20
2018-10-12T16:00:22.868Z,3.87
2018-10-12T16:02:51.754Z,3.47
2018-10-12T16:05:20.773Z,3.63
2018-10-12T16:07:50.094Z,3.83
2018-10-12T16:10:19.124Z,3.97
2018-10-12T16:12:48.095Z,3.30
2018-10-12T16:15:17.105Z,3.93
2018-10-12T16:17:46.103Z,3.93
2018-10-12T16:20:15.003Z,3.83
2018-10-12T16:22:43.996Z,4.27
2018-10-12T16:25:24.187Z,3.60
2018-10-12T16:27:53.087Z,3.80
2018-10-12T16:30:22.118Z,3.87
2018-10-12T16:32:51.091Z,4.50
2018-10-12T16:35:20.168Z,4.20
2018-10-12T16:37:49.187Z,4.47
2018-10-12T16:40:18.204Z,4.20
2018-10-12T16:42:47.267Z,4.13
2018-10-12T16:45:16.273Z,4.87
2018-10-12T16:47:45.230Z,5.13
2018-10-12T16:50:14.195Z,4.77
2018-10-12T16:52:43.100Z,5.00
2018-10-12T16:55:12.008Z,5.03
2018-10-12T16:57:40.998Z,5.40
2018-10-12T17:00:09.872Z,4.97
2018-10-12T17:02:38.863Z,4.60
2018-10-12T17:05:07.798Z,4.87
2018-10-12T17:07:36.668Z,4.63
2018-10-12T17:11:34.806Z,5.33
2018-10-12T17:14:03.754Z,5.30
2018-10-12T17:16:32.756Z,5.50
2018-10-12T17:19:01.735Z,5.17
2018-10-12T17:21:30.778Z,5.33
2018-10-12T17:23:59.833Z,5.90
2018-10-12T17:26:28.829Z,5.70
2018-10-12T17:28:57.930Z,5.23
2018-10-12T17:31:26.886Z,5.30
2018-10-12T17:33:55.791Z,5.80
2018-10-12T17:36:24.747Z,4.80
2018-10-12T17:38:53.716Z,6.33
2018-10-12T17:41:23.715Z,5.30
2018-10-12T17:43:52.611Z,5.40
2018-10-12T17:46:21.604Z,5.50
2018-10-12T17:48:50.613Z,5.93
2018-10-12T17:51:19.603Z,6.40
2018-10-12T17:53:48.552Z,6.90
2018-10-12T17:56:17.432Z,5.77
2018-10-12T17:58:46.361Z,6.17
2018-10-12T18:01:15.312Z,6.10
2018-10-12T18:03:44.260Z,6.33
2018-10-12T18:06:13.234Z,6.60
2018-10-12T18:08:42.309Z,6.40
2018-10-12T18:11:11.393Z,6.77
2018-10-12T18:13:40.349Z,6.40
2018-10-12T18:16:09.400Z,6.47
2018-10-12T18:18:38.319Z,6.57
2018-10-12T18:21:07.395Z,6.80
2018-10-12T18:23:36.445Z,6.43
2018-10-12T18:26:06.445Z,6.23
2018-10-12T18:28:35.415Z,6.77
2018-10-12T18:31:04.296Z,6.83
2018-10-12T18:33:33.274Z,6.33
2018-10-12T18:36:02.237Z,7.03
2018-10-12T18:38:31.171Z,6.47
2018-10-12T18:41:00.085Z,7.07
2018-10-12T18:43:29.107Z,6.27
2018-10-12T18:45:58.051Z,6.70
2018-10-12T18:48:27.083Z,6.20
2018-10-12T18:50:56.241Z,6.73
2018-10-12T18:53:25.271Z,6.20
2018-10-12T18:55:55.220Z,5.90
2018-10-12T18:58:24.219Z,6.50
2018-10-12T19:00:53.163Z,6.33
2018-10-12T19:03:22.103Z,5.97
2018-10-12T19:05:51.072Z,6.90
2018-10-12T19:08:20.129Z,6.00
2018-10-12T19:10:49.139Z,6.27
2018-10-12T19:13:18.141Z,7.63
2018-10-12T19:15:47.079Z,6.80
2018-10-12T19:18:15.977Z,6.27
2018-10-12T19:20:45.023Z,7.33
2018-10-12T19:23:13.931Z,7.13
2018-10-12T19:25:42.821Z,6.23
2018-10-12T19:28:11.735Z,6.93
2018-10-12T19:30:40.724Z,6.47
2018-10-12T19:33:09.621Z,5.70
2018-10-12T19:35:38.595Z,6.40
2018-10-12T19:38:08.490Z,6.30
2018-10-12T19:40:37.455Z,6.67
2018-10-12T19:43:06.448Z,6.50
2018-10-12T19:45:35.404Z,5.77
2018-10-12T19:48:04.338Z,5.90
2018-10-12T19:50:33.285Z,6.43
2018-10-12T19:53:04.493Z,6.53
2018-10-12T19:55:33.345Z,6.23
2018-10-12T19:58:02.481Z,6.20
2018-10-12T20:00:31.414Z,6.50
2018-10-12T20:03:00.683Z,6.00
2018-10-12T20:05:29.675Z,6.30
2018-10-12T20:07:58.623Z,6.27
2018-10-12T20:10:27.683Z,6.37
2018-10-12T20:12:56.645Z,6.37
2018-10-12T20:15:25.639Z,5.90
2018-10-12T20:17:54.607Z,5.97
2018-10-12T20:20:23.561Z,6.20
2018-10-12T20:22:52.676Z,6.63
2018-10-12T20:25:21.717Z,6.63
2018-10-12T20:27:50.976Z,13.03
2018-10-12T20:30:19.971Z,8.83
2018-10-12T20:32:48.876Z,7.37
2018-10-12T20:35:18.916Z,6.20
2018-10-12T20:37:47.865Z,6.20
2018-10-12T20:40:17.846Z,6.53
2018-10-12T20:42:46.717Z,5.50
2018-10-12T20:45:15.707Z,6.40
2018-10-12T20:47:44.651Z,5.83
2018-10-12T20:50:13.531Z,6.07
2018-10-12T20:52:42.611Z,5.60
2018-10-12T20:55:11.590Z,6.37
2018-10-12T20:57:46.252Z,6.67
2018-10-12T21:00:16.492Z,5.93
2018-10-12T21:02:45.525Z,5.83
2018-10-12T21:05:14.539Z,6.37
2018-10-12T21:07:44.219Z,6.10
2018-10-12T21:10:13.228Z,5.97
2018-10-12T21:12:44.237Z,6.90
2018-10-12T21:15:18.561Z,6.23
2018-10-12T21:17:48.492Z,5.87
2018-10-12T21:20:17.443Z,6.60
2018-10-12T21:22:46.310Z,6.60
2018-10-12T21:25:15.243Z,6.63
2018-10-12T21:27:44.259Z,6.63
2018-10-12T21:30:13.238Z,6.37
2018-10-12T21:32:42.245Z,6.07
2018-10-12T21:41:58.251Z,6.20
2018-10-12T21:44:27.174Z,6.70
2018-10-12T21:46:56.190Z,6.07
2018-10-12T21:49:25.131Z,6.30
2018-10-12T21:51:54.444Z,6.83
2018-10-12T21:54:23.450Z,6.40
2018-10-12T21:56:52.326Z,7.03
2018-10-12T21:59:21.366Z,6.00
2018-10-12T22:01:50.300Z,6.80
2018-10-12T22:04:20.374Z,6.57
2018-10-12T22:06:49.327Z,6.37
2018-10-12T22:09:18.315Z,6.77
2018-10-12T22:11:47.229Z,6.43
2018-10-12T22:14:16.143Z,6.27
2018-10-12T22:16:45.113Z,6.70
2018-10-12T22:19:14.072Z,6.30
2018-10-12T22:21:42.937Z,6.90
2018-10-12T22:24:11.805Z,6.53
2018-10-12T22:26:40.792Z,6.00
2018-10-12T22:29:09.679Z,6.97
2018-10-12T22:31:38.543Z,6.67
2018-10-12T22:34:07.804Z,5.43
2018-10-12T22:36:36.723Z,6.00
2018-10-12T22:39:07.629Z,6.27
2018-10-12T22:41:36.513Z,6.20
2018-10-12T22:44:05.403Z,5.90
2018-10-12T22:46:34.497Z,6.50
2018-10-12T22:49:03.457Z,6.13
2018-10-12T22:51:32.345Z,6.93
2018-10-12T22:54:01.228Z,6.20
2018-10-12T22:56:30.175Z,6.30
2018-10-12T22:58:59.094Z,6.77
2018-10-12T23:01:27.964Z,6.13
2018-10-12T23:03:56.811Z,6.60
2018-10-12T23:06:25.737Z,6.73
2018-10-12T23:08:54.592Z,6.87
2018-10-12T23:11:23.459Z,6.50
2018-10-12T23:13:52.362Z,5.93
2018-10-12T23:16:21.280Z,6.53
2018-10-12T23:18:50.242Z,6.30
2018-10-12T23:21:19.095Z,6.67
2018-10-12T23:23:47.948Z,7.10
2018-10-12T23:26:16.800Z,7.37
2018-10-12T23:28:45.668Z,6.80
2018-10-12T23:31:14.523Z,6.03
2018-10-12T23:33:54.757Z,6.20
2018-10-12T23:36:23.630Z,6.20
2018-10-12T23:38:52.502Z,6.90
2018-10-12T23:41:21.388Z,6.73
2018-10-12T23:43:50.267Z,6.60
2018-10-12T23:46:19.190Z,6.63
2018-10-12T23:48:48.086Z,7.17
2018-10-12T23:51:17.042Z,6.90
2018-10-12T23:53:45.868Z,6.97
2018-10-12T23:56:14.720Z,6.77
2018-10-12T23:58:43.578Z,6.00
